Time;durP1;ratioP1;P1;durP2;ratioP2;P2;SDS_P1;SDS_P2;PMS_P1;PMS_P2;Temp;Humidity;BMP_temperature;BMP_pressure;BME280_temperature;BME280_humidity;BME280_pressure;Samples;Min_cycle;Max_cycle;Signal;HPM_P1;HPM_P2
2022/03/10 00:00:00;;;;;;;25.30;13.30;;;;;;;0.42;76.98;99413.64;105950;1280;23111;-77
2022/03/10 00:02:26;;;;;;;35.90;16.80;;;;;;;0.36;77.21;99418.30;105792;1280;138064;-76
2022/03/10 00:04:53;;;;;;;35.30;15.80;;;;;;;0.31;77.02;99421.95;105818;1280;22544;-77
2022/03/10 00:07:19;;;;;;;34.10;17.10;;;;;;;0.30;77.25;99426.41;106016;1280;22581;-75
2022/03/10 00:09:45;;;;;;;35.80;16.50;;;;;;;0.30;77.30;99432.34;105792;1280;137810;-77
2022/03/10 00:12:12;;;;;;;30.30;16.20;;;;;;;0.31;77.35;99431.34;105776;1280;22706;-75
2022/03/10 00:14:38;;;;;;;32.80;16.40;;;;;;;0.30;77.71;99434.27;105678;1280;137855;-76
2022/03/10 00:17:04;;;;;;;33.80;16.90;;;;;;;0.29;77.81;99436.48;105894;1280;22673;-76
2022/03/10 00:19:31;;;;;;;28.50;15.40;;;;;;;0.28;77.85;99440.02;106001;1280;138264;-76
2022/03/10 00:21:57;;;;;;;35.20;18.10;;;;;;;0.25;77.88;99438.66;105833;1280;25388;-76
2022/03/10 00:24:23;;;;;;;35.70;17.80;;;;;;;0.25;77.76;99437.27;106070;1280;22572;-76
2022/03/10 00:26:50;;;;;;;35.10;16.80;;;;;;;0.26;78.16;99440.27;105702;1280;138235;-76
2022/03/10 00:29:16;;;;;;;36.30;17.20;;;;;;;0.28;78.11;99443.96;105955;1280;22570;-76
2022/03/10 00:31:42;;;;;;;33.50;15.30;;;;;;;0.28;78.16;99446.92;105783;1280;138576;-78
2022/03/10 00:34:09;;;;;;;33.20;16.30;;;;;;;0.28;78.16;99446.42;105654;1280;27109;-76
2022/03/10 00:36:35;;;;;;;28.40;13.60;;;;;;;0.27;77.87;99449.62;106094;1280;25336;-77
2022/03/10 00:39:03;;;;;;;31.00;15.90;;;;;;;0.23;77.87;99451.09;105670;1280;138280;-78
2022/03/10 00:41:30;;;;;;;36.00;17.50;;;;;;;0.16;77.99;99452.74;105716;1280;23431;-76
2022/03/10 00:43:56;;;;;;;36.00;17.50;;;;;;;0.15;78.09;99453.03;105716;1280;138188;-75
2022/03/10 00:46:22;;;;;;;35.30;18.30;;;;;;;0.18;78.13;99453.10;106018;1280;26106;-76
2022/03/10 00:48:49;;;;;;;31.90;15.10;;;;;;;0.20;77.87;99453.72;106102;1279;22591;-75
2022/03/10 00:51:15;;;;;;;29.90;14.70;;;;;;;0.19;77.78;99457.02;105873;1280;137678;-77
2022/03/10 00:53:41;;;;;;;36.40;17.20;;;;;;;0.16;77.85;99459.27;105897;1280;22575;-75
2022/03/10 00:56:08;;;;;;;31.30;14.40;;;;;;;0.14;78.09;99460.69;105804;1280;137793;-75
2022/03/10 00:58:34;;;;;;;31.30;15.10;;;;;;;0.11;77.69;99462.37;105953;1280;22548;-75
2022/03/10 01:01:00;;;;;;;31.90;15.30;;;;;;;0.08;78.04;99463.61;105824;1280;22813;-75
2022/03/10 01:03:26;;;;;;;30.20;14.00;;;;;;;0.08;77.94;99465.79;105613;1280;137898;-76
2022/03/10 01:05:53;;;;;;;31.30;14.80;;;;;;;0.07;77.63;99467.09;105828;1280;25481;-75
2022/03/10 01:08:19;;;;;;;25.00;12.30;;;;;;;0.06;77.65;99466.64;105814;1280;138039;-75
2022/03/10 01:10:45;;;;;;;23.20;12.10;;;;;;;0.03;77.12;99467.34;105890;1280;22560;-75
2022/03/10 01:13:18;;;;;;;18.40;10.60;;;;;;;-0.01;76.98;99466.64;105835;1280;22553;-75
2022/03/10 01:15:46;;;;;;;25.80;12.30;;;;;;;-0.04;76.99;99466.05;105725;1280;137550;-75
2022/03/10 01:18:14;;;;;;;20.30;10.70;;;;;;;-0.04;76.92;99463.23;105793;1280;22568;-75
2022/03/10 01:20:41;;;;;;;21.10;10.80;;;;;;;-0.07;76.85;99461.66;105535;1280;137687;-75
2022/03/10 01:23:10;;;;;;;22.10;12.20;;;;;;;-0.10;77.01;99462.54;105743;1280;25359;-76
2022/03/10 01:25:37;;;;;;;23.10;11.70;;;;;;;-0.12;77.13;99462.95;105609;1280;138469;-76
2022/03/10 01:28:03;;;;;;;24.60;12.20;;;;;;;-0.12;77.26;99467.40;105774;1280;22593;-74
2022/03/10 01:30:30;;;;;;;21.90;11.30;;;;;;;-0.11;77.17;99469.45;105924;1280;24217;-75
2022/03/10 01:32:56;;;;;;;21.80;10.60;;;;;;;-0.12;77.06;99466.46;105791;1280;138618;-74
2022/03/10 01:35:23;;;;;;;22.10;11.60;;;;;;;-0.13;77.09;99468.41;105924;1280;22645;-74
2022/03/10 01:37:49;;;;;;;23.50;12.80;;;;;;;-0.13;77.22;99468.93;105853;1280;137918;-74
2022/03/10 01:40:18;;;;;;;24.20;11.60;;;;;;;-0.14;77.37;99467.95;105728;1280;25429;-76
2022/03/10 01:42:45;;;;;;;16.60;9.40;;;;;;;-0.14;77.24;99475.05;106069;1280;22569;-74
2022/03/10 01:45:12;;;;;;;25.30;12.20;;;;;;;-0.16;77.05;99476.02;105809;1280;138380;-76
2022/03/10 01:47:53;;;;;;;26.00;11.90;;;;;;;-0.19;77.11;99476.79;105729;1280;25381;-74
2022/03/10 01:50:20;;;;;;;20.50;11.10;;;;;;;-0.19;76.79;99479.27;105597;1280;138066;-74
2022/03/10 01:52:48;;;;;;;21.10;9.90;;;;;;;-0.17;76.65;99482.52;105740;1280;22669;-74
2022/03/10 01:55:16;;;;;;;17.00;9.80;;;;;;;-0.20;76.30;99486.34;105962;1280;22596;-74
2022/03/10 01:57:43;;;;;;;19.30;11.00;;;;;;;-0.24;76.14;99487.20;105657;1280;137565;-74
2022/03/10 02:00:11;;;;;;;18.50;9.60;;;;;;;-0.26;76.22;99491.73;105682;1280;24565;-74
2022/03/10 02:02:38;;;;;;;18.30;10.10;;;;;;;-0.27;76.53;99491.89;105869;1280;137689;-74
2022/03/10 02:05:04;;;;;;;17.20;9.70;;;;;;;-0.30;76.38;99491.40;105875;1279;24380;-74
2022/03/10 02:10:17;;;;;;;16.80;9.40;;;;;;;-0.37;75.76;99493.90;105903;1280;22566;-74
2022/03/10 02:12:46;;;;;;;19.00;9.80;;;;;;;-0.39;75.44;99498.48;105957;1280;25414;-73
2022/03/10 02:18:05;;;;;;;20.80;10.40;;;;;;;-0.40;75.94;99502.05;105744;1280;24270;-74
2022/03/10 02:20:34;;;;;;;17.30;9.50;;;;;;;-0.43;76.07;99502.45;105813;1280;137728;-75
2022/03/10 02:23:01;;;;;;;15.50;9.30;;;;;;;-0.45;75.46;99509.52;105930;1280;22610;-73
2022/03/10 02:25:27;;;;;;;18.00;10.10;;;;;;;-0.49;75.43;99513.44;105848;1280;24553;-75
2022/03/10 02:27:56;;;;;;;16.00;9.00;;;;;;;-0.54;75.58;99514.05;105752;1280;137496;-73
2022/03/10 02:30:25;;;;;;;19.80;10.60;;;;;;;-0.58;75.63;99524.13;105869;1280;22684;-73
2022/03/10 02:32:51;;;;;;;18.90;9.70;;;;;;;-0.61;75.76;99527.06;105769;1280;138299;-73
2022/03/10 02:35:18;;;;;;;14.70;7.90;;;;;;;-0.63;75.60;99527.77;105886;1280;22554;-74
2022/03/10 02:37:45;;;;;;;14.60;7.90;;;;;;;-0.66;75.26;99530.80;105780;1280;137813;-74
2022/03/10 02:40:12;;;;;;;13.50;8.60;;;;;;;-0.70;75.31;99532.69;105769;1280;25586;-73
2022/03/10 02:42:39;;;;;;;10.80;6.90;;;;;;;-0.75;75.20;99536.57;105716;1280;22700;-74
2022/03/10 02:45:07;;;;;;;12.10;7.10;;;;;;;-0.83;75.22;99545.35;105736;1280;137472;-73
2022/03/10 02:47:33;;;;;;;14.00;8.50;;;;;;;-0.91;75.46;99548.77;105808;1280;25251;-74
2022/03/10 02:49:59;;;;;;;10.50;6.00;;;;;;;-0.97;75.71;99555.70;105724;1280;138083;-73
2022/03/10 02:52:26;;;;;;;14.10;8.70;;;;;;;-1.03;75.65;99559.11;105793;1280;25393;-72
2022/03/10 02:54:52;;;;;;;15.10;9.00;;;;;;;-1.07;75.70;99556.49;105811;1280;22581;-73
2022/03/10 02:57:19;;;;;;;14.30;8.00;;;;;;;-1.09;75.72;99558.80;105849;1280;139089;-73
2022/03/10 02:59:45;;;;;;;13.00;7.40;;;;;;;-1.09;75.85;99563.33;105837;1280;25341;-73
2022/03/10 03:02:12;;;;;;;9.40;6.00;;;;;;;-1.11;75.76;99568.67;105731;1280;138127;-73
2022/03/10 03:04:39;;;;;;;13.70;6.90;;;;;;;-1.17;75.52;99572.73;105910;1280;25268;-73
2022/03/10 03:07:05;;;;;;;13.30;7.00;;;;;;;-1.23;75.45;99576.15;105737;1280;25368;-73
2022/03/10 03:09:31;;;;;;;12.00;6.90;;;;;;;-1.29;75.49;99583.69;105777;1279;137525;-73
2022/03/10 03:11:58;;;;;;;11.90;6.60;;;;;;;-1.36;75.49;99588.52;105825;1280;25285;-73
2022/03/10 03:14:24;;;;;;;11.30;6.60;;;;;;;-1.43;75.32;99589.70;105694;1280;138534;-73
2022/03/10 03:16:52;;;;;;;13.20;7.20;;;;;;;-1.50;75.42;99593.22;105897;1280;25219;-73
2022/03/10 03:19:18;;;;;;;10.70;6.80;;;;;;;-1.56;75.41;99598.23;105817;1280;25364;-73
2022/03/10 03:21:44;;;;;;;13.70;6.40;;;;;;;-1.58;75.86;99602.89;105763;1279;137677;-73
2022/03/10 03:24:11;;;;;;;11.70;6.30;;;;;;;-1.61;75.93;99597.62;105704;1280;25352;-73
2022/03/10 03:26:37;;;;;;;10.00;6.00;;;;;;;-1.63;75.99;99602.48;105801;1280;137989;-73
2022/03/10 03:29:04;;;;;;;12.10;6.00;;;;;;;-1.65;76.27;99607.27;105771;1280;22538;-73
2022/03/10 03:31:30;;;;;;;9.70;5.90;;;;;;;-1.69;76.18;99611.16;105721;1280;137891;-73
2022/03/10 03:33:57;;;;;;;14.20;7.50;;;;;;;-1.74;76.50;99615.46;105832;1280;22593;-72
2022/03/10 03:36:23;;;;;;;12.90;7.30;;;;;;;-1.76;76.67;99621.57;105793;1280;22553;-73
2022/03/10 03:38:49;;;;;;;10.40;7.20;;;;;;;-1.77;76.56;99628.01;105511;1280;139237;-73
2022/03/10 03:41:15;;;;;;;10.40;6.60;;;;;;;-1.76;77.04;99624.98;105885;1280;24546;-73
2022/03/10 03:43:42;;;;;;;11.10;6.80;;;;;;;-1.77;77.07;99625.58;105854;1280;138419;-73
2022/03/10 03:46:09;;;;;;;10.10;6.60;;;;;;;-1.79;77.15;99628.26;105858;1280;22565;-73
2022/03/10 03:48:38;;;;;;;10.10;6.20;;;;;;;-1.80;77.43;99632.60;105822;1280;23972;-73
2022/03/10 03:51:04;;;;;;;13.30;6.90;;;;;;;-1.83;77.27;99636.61;105776;1280;137442;-73
2022/03/10 03:53:31;;;;;;;13.40;7.00;;;;;;;-1.86;77.43;99642.92;105873;1280;22562;-72
2022/03/10 03:55:57;;;;;;;11.90;6.80;;;;;;;-1.90;77.36;99642.23;105651;1280;137653;-73
2022/03/10 03:58:23;;;;;;;14.40;7.80;;;;;;;-1.95;77.22;99646.21;105916;1280;22571;-73
2022/03/10 04:00:49;;;;;;;12.60;7.80;;;;;;;-1.98;77.08;99652.70;105995;1279;22544;-73
2022/03/10 04:03:16;;;;;;;10.00;6.40;;;;;;;-1.99;77.15;99656.15;105704;1280;138856;-73
2022/03/10 04:05:42;;;;;;;11.50;6.80;;;;;;;-1.99;77.07;99658.46;105763;1280;22639;-73
2022/03/10 04:08:10;;;;;;;12.60;7.20;;;;;;;-2.03;77.04;99667.67;105894;1280;137823;-73
2022/03/10 04:10:36;;;;;;;11.60;7.20;;;;;;;-2.07;76.78;99668.98;105796;1280;22572;-73
2022/03/10 04:13:04;;;;;;;11.50;7.10;;;;;;;-2.11;76.74;99672.89;105841;1280;23783;-73
2022/03/10 04:15:31;;;;;;;12.90;7.40;;;;;;;-2.18;76.80;99677.36;105825;1280;137544;-73
2022/03/10 04:17:57;;;;;;;13.40;7.00;;;;;;;-2.23;77.01;99679.64;106105;1280;22601;-73
2022/03/10 04:20:25;;;;;;;14.80;8.10;;;;;;;-2.29;77.03;99683.09;105825;1280;138407;-73
2022/03/10 04:22:51;;;;;;;15.40;7.00;;;;;;;-2.35;76.98;99682.78;105842;1278;25340;-73
2022/03/10 04:25:18;;;;;;;10.80;7.00;;;;;;;-2.41;76.63;99688.79;105744;1280;24400;-73
2022/03/10 04:27:44;;;;;;;12.60;7.00;;;;;;;-2.45;76.49;99693.94;105931;1280;138331;-73
2022/03/10 04:30:11;;;;;;;13.20;7.10;;;;;;;-2.49;76.88;99694.42;106091;1280;24402;-73
2022/03/10 04:32:46;;;;;;;11.40;6.50;;;;;;;-2.51;76.97;99700.08;105962;1280;137435;-73
2022/03/10 04:35:15;;;;;;;13.10;6.90;;;;;;;-2.54;76.87;99701.44;106083;1280;25338;-73
2022/03/10 04:37:43;;;;;;;12.90;6.20;;;;;;;-2.57;76.67;99704.07;105712;1280;138527;-73
2022/03/10 04:40:09;;;;;;;9.40;5.90;;;;;;;-2.63;77.40;99706.64;105895;1280;22563;-73
2022/03/10 04:42:37;;;;;;;12.70;7.60;;;;;;;-2.69;77.42;99708.24;105867;1280;22571;-72
2022/03/10 04:45:06;;;;;;;15.50;8.30;;;;;;;-2.74;77.32;99713.98;105910;1280;137880;-72
2022/03/10 04:47:34;;;;;;;16.50;8.30;;;;;;;-2.77;77.18;99719.52;106160;1280;22582;-72
2022/03/10 04:50:01;;;;;;;13.30;6.20;;;;;;;-2.79;77.73;99717.77;105682;1280;138001;-72
2022/03/10 04:52:29;;;;;;;12.70;6.90;;;;;;;-2.82;77.43;99724.62;105970;1281;24140;-72
2022/03/10 04:54:55;;;;;;;13.20;7.00;;;;;;;-2.87;77.62;99727.96;105889;1280;22570;-72
2022/03/10 04:57:22;;;;;;;14.00;7.40;;;;;;;-2.90;77.44;99732.84;105872;1280;137563;-72
2022/03/10 04:59:49;;;;;;;13.00;6.90;;;;;;;-2.93;77.18;99736.14;105866;1280;24519;-72
2022/03/10 05:02:15;;;;;;;14.60;7.30;;;;;;;-2.97;77.02;99743.09;105974;1280;137701;-72
2022/03/10 05:04:42;;;;;;;13.10;7.10;;;;;;;-3.02;77.02;99742.80;106097;1280;24282;-72
2022/03/10 05:07:09;;;;;;;10.70;5.80;;;;;;;-3.08;77.02;99745.93;105904;1280;24447;-72
2022/03/10 05:09:35;;;;;;;15.30;7.00;;;;;;;-3.11;77.00;99748.63;105902;1280;137975;-72
2022/03/10 05:12:02;;;;;;;12.70;7.30;;;;;;;-3.12;77.10;99750.48;105905;1280;22557;-72
2022/03/10 05:14:29;;;;;;;16.00;6.80;;;;;;;-3.14;77.10;99753.53;105900;1280;137638;-72
2022/03/10 05:16:55;;;;;;;9.80;6.50;;;;;;;-3.16;76.73;99759.71;105960;1280;25526;-72
2022/03/10 05:19:21;;;;;;;12.20;6.60;;;;;;;-3.18;76.98;99764.52;105969;1280;25452;-72
2022/03/10 05:21:47;;;;;;;10.60;6.50;;;;;;;-3.20;76.96;99769.86;105940;1280;137661;-72
2022/03/10 05:24:14;;;;;;;16.70;7.20;;;;;;;-3.24;76.96;99772.60;105957;1281;22778;-72
2022/03/10 05:26:40;;;;;;;11.20;6.20;;;;;;;-3.28;76.72;99778.23;105852;1280;137733;-72
2022/03/10 05:29:06;;;;;;;14.00;7.80;;;;;;;-3.30;76.50;99781.81;105716;1280;25391;-72
2022/03/10 05:31:33;;;;;;;13.30;7.20;;;;;;;-3.31;76.69;99789.35;105856;1280;22703;-72
2022/03/10 05:33:59;;;;;;;12.40;6.50;;;;;;;-3.30;76.22;99793.33;105792;1280;137726;-72
2022/03/10 05:36:26;;;;;;;12.70;6.60;;;;;;;-3.30;76.13;99797.09;106025;1280;24932;-72
2022/03/10 05:38:52;;;;;;;16.10;7.00;;;;;;;-3.30;76.25;99802.36;106063;1280;137892;-72
2022/03/10 05:41:19;;;;;;;12.50;7.10;;;;;;;-3.31;76.27;99804.42;105968;1280;22720;-73
2022/03/10 05:43:45;;;;;;;11.20;6.30;;;;;;;-3.33;76.10;99807.40;105840;1280;137990;-73
2022/03/10 05:46:11;;;;;;;12.40;6.60;;;;;;;-3.36;76.11;99810.36;106028;1281;25279;-73
2022/03/10 05:48:37;;;;;;;12.20;6.60;;;;;;;-3.39;75.76;99808.09;105964;1280;22678;-73
2022/03/10 05:51:18;;;;;;;14.10;7.40;;;;;;;-3.41;75.93;99810.92;105852;1280;137654;-73
2022/03/10 05:53:45;;;;;;;13.00;7.20;;;;;;;-3.44;75.20;99812.00;106082;1280;25432;-73
2022/03/10 05:56:11;;;;;;;12.30;6.90;;;;;;;-3.43;75.05;99817.60;105879;1280;138198;-73
2022/03/10 05:58:38;;;;;;;12.00;6.10;;;;;;;-3.40;75.32;99823.10;105917;1280;25415;-71
2022/03/10 06:01:04;;;;;;;11.00;6.10;;;;;;;-3.38;75.26;99827.33;106063;1280;24446;-74
2022/03/10 06:03:30;;;;;;;13.00;6.20;;;;;;;-3.36;74.61;99828.05;105724;1280;137498;-74
2022/03/10 06:05:56;;;;;;;12.50;6.20;;;;;;;-3.34;74.42;99834.16;105993;1280;24294;-74
2022/03/10 06:08:23;;;;;;;11.40;5.50;;;;;;;-3.34;74.82;99834.11;105948;1280;138006;-72
2022/03/10 06:10:49;;;;;;;11.10;5.80;;;;;;;-3.32;73.81;99840.05;105855;1280;29113;-72
2022/03/10 06:13:15;;;;;;;10.10;5.00;;;;;;;-3.32;72.79;99841.61;106031;1280;24279;-71
2022/03/10 06:15:41;;;;;;;14.20;6.60;;;;;;;-3.32;72.31;99843.96;105859;1280;137972;-72
2022/03/10 06:18:08;;;;;;;10.10;6.10;;;;;;;-3.32;72.61;99848.17;105928;1280;24473;-72
2022/03/10 06:20:34;;;;;;;11.20;5.40;;;;;;;-3.28;71.80;99853.89;105961;1279;138040;-72
2022/03/10 06:23:01;;;;;;;11.40;5.80;;;;;;;-3.22;71.47;99860.05;105985;1280;23508;-72
2022/03/10 06:25:27;;;;;;;9.70;5.00;;;;;;;-3.20;71.32;99862.51;105991;1280;25280;-72
2022/03/10 06:27:54;;;;;;;7.70;4.70;;;;;;;-3.17;70.96;99866.36;105742;1280;137456;-72
2022/03/10 06:30:35;;;;;;;11.60;5.30;;;;;;;-3.13;71.55;99871.05;105818;1280;22646;-72
2022/03/10 06:33:01;;;;;;;10.80;5.60;;;;;;;-3.10;70.86;99873.43;105842;1280;137594;-72
2022/03/10 06:35:29;;;;;;;8.40;5.20;;;;;;;-3.09;70.22;99878.38;105811;1280;25282;-72
2022/03/10 06:37:55;;;;;;;7.60;4.40;;;;;;;-3.07;70.54;99879.08;105713;1280;138262;-72
2022/03/10 06:40:22;;;;;;;9.40;4.70;;;;;;;-3.04;70.40;99881.01;105889;1280;23968;-72
2022/03/10 06:42:48;;;;;;;9.70;4.90;;;;;;;-3.03;70.24;99885.73;106005;1280;22615;-72
2022/03/10 06:45:14;;;;;;;8.80;4.80;;;;;;;-3.01;69.66;99884.33;105831;1280;137533;-72
2022/03/10 06:47:41;;;;;;;9.10;4.70;;;;;;;-3.00;69.40;99887.42;106139;1280;22575;-71
2022/03/10 06:50:07;;;;;;;10.80;5.50;;;;;;;-2.99;69.42;99890.17;105875;1280;138302;-72
2022/03/10 06:52:34;;;;;;;9.50;5.20;;;;;;;-2.98;68.92;99890.27;105891;1280;22722;-71
2022/03/10 06:55:00;;;;;;;8.80;5.50;;;;;;;-2.98;68.52;99896.11;106106;1280;22562;-71
2022/03/10 06:57:26;;;;;;;9.50;5.80;;;;;;;-2.96;68.43;99900.94;105919;1280;138216;-71
2022/03/10 06:59:53;;;;;;;10.00;4.40;;;;;;;-2.93;69.08;99902.95;105869;1280;22553;-71
2022/03/10 07:02:19;;;;;;;10.40;5.50;;;;;;;-2.89;68.40;99906.55;105930;1280;138190;-71
2022/03/10 07:04:45;;;;;;;8.30;5.20;;;;;;;-2.83;68.77;99907.39;106025;1280;22587;-71
2022/03/10 07:07:11;;;;;;;9.20;5.30;;;;;;;-2.76;68.50;99910.16;107595;1280;24258;-71
2022/03/10 07:09:38;;;;;;;9.00;4.50;;;;;;;-2.68;67.65;99910.45;105803;1280;137317;-71
2022/03/10 07:12:29;;;;;;;9.70;4.40;;;;;;;-2.62;67.60;99909.80;105649;1281;22566;-71
2022/03/10 07:14:56;;;;;;;15.00;5.40;;;;;;;-2.59;66.84;99913.40;106341;1279;137553;-71
2022/03/10 07:17:22;;;;;;;8.90;4.70;;;;;;;-2.54;67.60;99916.20;106016;1280;22576;-71
2022/03/10 07:19:48;;;;;;;8.30;4.40;;;;;;;-2.49;67.76;99920.08;105994;1280;137746;-71
2022/03/10 07:22:18;;;;;;;8.80;4.90;;;;;;;-2.44;66.85;99924.16;106015;1280;22576;-71
2022/03/10 07:24:59;;;;;;;12.40;5.50;;;;;;;-2.41;65.64;99923.02;106033;1280;22565;-71
2022/03/10 07:27:25;;;;;;;9.80;5.10;;;;;;;-2.40;65.43;99929.30;106203;1280;138595;-71
2022/03/10 07:29:52;;;;;;;8.60;4.60;;;;;;;-2.37;65.41;99927.47;106254;1280;24408;-72
2022/03/10 07:32:19;;;;;;;8.40;4.20;;;;;;;-2.33;65.03;99929.49;106008;1280;137659;-71
2022/03/10 07:34:47;;;;;;;7.20;3.90;;;;;;;-2.31;64.38;99928.36;106196;1280;22569;-71
2022/03/10 07:37:18;;;;;;;7.70;4.80;;;;;;;-2.30;64.35;99928.80;105927;1280;23457;-71
2022/03/10 07:39:44;;;;;;;8.10;4.50;;;;;;;-2.27;64.20;99930.95;106123;1280;137974;-71
2022/03/10 07:42:11;;;;;;;7.20;3.70;;;;;;;-2.23;64.54;99933.42;106204;1280;25341;-71
2022/03/10 07:44:37;;;;;;;9.20;4.70;;;;;;;-2.20;64.63;99937.61;105812;1280;137562;-71
2022/03/10 07:47:05;;;;;;;8.40;4.60;;;;;;;-2.16;64.27;99937.13;106380;1280;26303;-70
2022/03/10 07:49:32;;;;;;;7.20;4.70;;;;;;;-2.12;64.02;99943.00;106110;1280;22796;-71
2022/03/10 07:52:00;;;;;;;8.40;4.70;;;;;;;-2.06;64.12;99944.37;106459;1280;137498;-72
2022/03/10 07:54:26;;;;;;;7.00;4.20;;;;;;;-2.01;63.62;99945.66;106172;1280;22550;-72
2022/03/10 07:56:53;;;;;;;6.80;3.90;;;;;;;-1.95;63.23;99949.97;105780;1280;138528;-71
2022/03/10 07:59:19;;;;;;;6.90;4.30;;;;;;;-1.90;62.93;99950.98;106173;1280;25271;-71
2022/03/10 08:01:45;;;;;;;8.10;4.10;;;;;;;-1.85;62.19;99944.69;105990;1280;138224;-70
2022/03/10 08:04:12;;;;;;;6.20;3.20;;;;;;;-1.81;62.09;99948.51;105915;1280;22756;-71
2022/03/10 08:06:38;;;;;;;8.70;4.10;;;;;;;-1.77;61.30;99952.03;106113;1280;22735;-71
2022/03/10 08:09:10;;;;;;;7.00;4.00;;;;;;;-1.73;60.73;99953.27;105894;1280;137612;-70
2022/03/10 08:11:38;;;;;;;7.70;4.40;;;;;;;-1.69;61.12;99949.25;106184;1280;22573;-70
2022/03/10 08:14:05;;;;;;;6.30;3.60;;;;;;;-1.64;61.33;99949.33;106151;1281;138485;-70
2022/03/10 08:16:33;;;;;;;8.60;4.80;;;;;;;-1.56;60.99;99946.89;106041;1283;22569;-70
2022/03/10 08:19:00;;;;;;;6.20;3.70;;;;;;;-1.48;60.61;99959.09;106221;1280;24279;-71
2022/03/10 08:21:27;;;;;;;6.70;4.10;;;;;;;-1.43;59.82;99954.36;106068;1280;137443;-70
2022/03/10 08:23:53;;;;;;;7.80;4.00;;;;;;;-1.32;60.88;99955.70;105975;1281;22849;-70
2022/03/10 08:26:34;;;;;;;6.20;3.60;;;;;;;-1.19;60.03;99956.56;106199;1279;137505;-71
2022/03/10 08:29:00;;;;;;;6.00;4.00;;;;;;;-1.10;58.88;99950.27;105948;1280;22661;-71
2022/03/10 08:31:27;;;;;;;5.60;3.50;;;;;;;-1.05;58.69;99955.73;106250;1280;24442;-71
2022/03/10 08:33:53;;;;;;;6.40;3.70;;;;;;;-1.05;57.36;99955.56;105945;1280;138027;-71
2022/03/10 08:36:20;;;;;;;5.60;3.50;;;;;;;-1.05;57.29;99958.44;106039;1279;22563;-70
2022/03/10 08:38:46;;;;;;;6.70;3.80;;;;;;;-1.12;56.47;99955.23;106154;1280;137330;-71
2022/03/10 08:41:13;;;;;;;8.70;4.50;;;;;;;-1.21;56.53;99954.23;105972;1280;25280;-71
2022/03/10 08:43:39;;;;;;;6.40;4.20;;;;;;;-1.25;57.28;99958.48;106018;1280;25354;-71
2022/03/10 08:46:06;;;;;;;7.00;3.80;;;;;;;-1.22;56.95;99956.10;106167;1279;137432;-71
2022/03/10 08:48:34;;;;;;;6.50;3.50;;;;;;;-1.06;57.26;99955.11;105995;1281;22591;-72
2022/03/10 08:51:04;;;;;;;7.60;4.30;;;;;;;-0.86;57.60;99960.16;105887;1281;137396;-72
2022/03/10 08:53:32;;;;;;;6.20;4.50;;;;;;;-0.72;56.74;99959.62;105914;1281;22709;-72
2022/03/10 08:56:13;;;;;;;7.00;4.10;;;;;;;-0.59;56.27;99958.81;105787;1280;137584;-72
2022/03/10 08:58:40;;;;;;;7.80;4.10;;;;;;;-0.51;55.94;99957.58;106197;1280;25260;-72
2022/03/10 09:01:07;;;;;;;7.60;4.10;;;;;;;-0.47;55.17;99956.66;105944;1281;24101;-73
2022/03/10 09:03:33;;;;;;;12.10;4.40;;;;;;;-0.44;54.83;99961.23;105700;1281;137493;-73
2022/03/10 09:05:59;;;;;;;7.00;4.10;;;;;;;-0.31;55.53;99962.81;105816;1281;22570;-73
2022/03/10 09:08:26;;;;;;;8.00;3.90;;;;;;;-0.16;54.58;99966.27;105736;1281;137953;-73
2022/03/10 09:10:52;;;;;;;9.80;4.10;;;;;;;-0.01;55.30;99967.77;105969;1280;22563;-73
2022/03/10 09:13:18;;;;;;;5.90;3.70;;;;;;;0.10;54.42;99960.34;105890;1281;22572;-73
2022/03/10 09:15:46;;;;;;;6.20;3.60;;;;;;;0.10;53.30;99961.42;105712;1280;296217;-74
2022/03/10 09:18:13;;;;;;;4.90;3.50;;;;;;;0.11;53.12;99957.86;106036;1279;22667;-74
2022/03/10 09:20:40;;;;;;;4.80;3.20;;;;;;;0.16;52.09;99962.80;105753;1281;137211;-73
2022/03/10 09:23:07;;;;;;;5.20;3.50;;;;;;;0.21;51.49;99963.95;105788;1281;22704;-73
2022/03/10 09:25:34;;;;;;;5.60;3.70;;;;;;;0.29;52.21;99964.27;105877;1281;22570;-73
2022/03/10 09:28:00;;;;;;;5.60;3.70;;;;;;;0.37;52.41;99967.65;105872;1281;137060;-74
2022/03/10 09:30:27;;;;;;;5.40;3.60;;;;;;;0.49;52.07;99970.15;105938;1280;24266;-73
2022/03/10 09:32:54;;;;;;;6.30;3.70;;;;;;;0.63;51.73;99969.73;105725;1281;137251;-73
2022/03/10 09:35:20;;;;;;;7.10;3.20;;;;;;;0.75;51.08;99981.48;105908;1281;22608;-73
2022/03/10 09:37:47;;;;;;;6.20;3.50;;;;;;;0.85;50.57;99971.36;105728;1281;137715;-73
2022/03/10 09:40:13;;;;;;;4.90;3.50;;;;;;;0.95;50.75;99968.81;106030;1279;22598;-73
2022/03/10 09:42:42;;;;;;;5.60;3.50;;;;;;;1.06;50.05;99969.63;105964;1281;22407;-73
2022/03/10 09:45:10;;;;;;;7.70;3.60;;;;;;;1.10;50.19;99970.33;105892;1281;137282;-73
2022/03/10 09:47:39;;;;;;;5.90;3.40;;;;;;;1.10;49.78;99970.63;106041;1281;24273;-73
2022/03/10 09:50:10;;;;;;;6.60;3.70;;;;;;;1.13;49.28;99965.52;105928;1281;137408;-72
2022/03/10 09:52:37;;;;;;;3.80;3.20;;;;;;;1.19;49.46;99968.39;105847;1280;22534;-73
2022/03/10 09:55:06;;;;;;;5.60;4.40;;;;;;;1.33;49.95;99969.56;105961;1281;22628;-73
2022/03/10 09:57:35;;;;;;;7.80;3.70;;;;;;;1.48;48.99;99966.27;105825;1281;137179;-73
2022/03/10 10:00:02;;;;;;;8.50;3.60;;;;;;;1.55;48.45;99966.35;105904;1279;26626;-74
2022/03/10 10:02:30;;;;;;;;;;;;;;;1.60;47.93;99975.92;105942;1280;137479;-74
2022/03/10 10:04:57;;;;;;;6.10;4.10;;;;;;;1.59;48.17;99974.04;106194;1281;22575;-74
2022/03/10 10:07:29;;;;;;;8.50;4.50;;;;;;;1.56;48.24;99970.89;105923;1280;23363;-74
2022/03/10 10:09:58;;;;;;;7.20;3.90;;;;;;;1.51;48.29;99971.79;105840;1281;137306;-74
2022/03/10 10:12:29;;;;;;;5.10;3.60;;;;;;;1.33;47.43;99985.46;105787;1280;25268;-74
2022/03/10 10:15:00;;;;;;;4.60;3.30;;;;;;;1.08;47.64;99992.30;105655;1281;138118;-74
2022/03/10 10:17:31;;;;;;;6.40;3.50;;;;;;;0.88;48.44;99993.67;105997;1279;25372;-74
2022/03/10 10:20:01;;;;;;;5.60;3.30;;;;;;;0.72;48.58;100001.58;105710;1281;137488;-75
2022/03/10 10:22:29;;;;;;;6.10;3.50;;;;;;;0.57;50.49;100004.63;105872;1281;25343;-75
2022/03/10 10:25:02;;;;;;;5.70;4.00;;;;;;;0.59;50.07;100009.45;105895;1281;22572;-74
2022/03/10 10:27:36;;;;;;;7.00;4.10;;;;;;;0.53;49.14;100006.20;105877;1280;137944;-74
2022/03/10 10:30:07;;;;;;;6.10;3.80;;;;;;;0.45;48.71;100005.92;105888;1281;22579;-75
2022/03/10 10:32:33;;;;;;;4.80;3.70;;;;;;;0.31;48.38;100004.83;105753;1281;137774;-75
2022/03/10 10:35:20;;;;;;;5.50;3.50;;;;;;;0.22;49.10;100001.94;105890;1281;22598;-75
2022/03/10 10:37:52;;;;;;;7.50;4.10;;;;;;;0.28;49.12;100002.42;105814;1281;137500;-75
2022/03/10 10:40:27;;;;;;;5.60;3.40;;;;;;;0.28;49.51;100007.85;105876;1281;22567;-75
2022/03/10 10:42:55;;;;;;;8.00;4.40;;;;;;;0.23;48.98;100009.40;105952;1281;25280;-75
2022/03/10 10:45:32;;;;;;;7.60;4.00;;;;;;;0.15;48.48;100008.96;106140;1280;138001;-75
2022/03/10 10:48:10;;;;;;;7.80;3.40;;;;;;;0.13;48.62;100009.50;105914;1280;22732;-75
2022/03/10 10:50:39;;;;;;;5.00;2.90;;;;;;;0.08;48.49;100005.15;105782;1281;138012;-75
2022/03/10 10:53:06;;;;;;;5.70;3.40;;;;;;;0.04;48.18;100005.86;105824;1280;22686;-75
2022/03/10 10:55:41;;;;;;;7.40;3.10;;;;;;;-0.02;47.95;100006.38;105908;1281;22613;-75
2022/03/10 10:58:11;;;;;;;5.70;2.90;;;;;;;-0.03;48.79;100005.81;105832;1280;137605;-75
2022/03/10 11:00:46;;;;;;;6.90;3.90;;;;;;;-0.04;49.39;100009.61;105923;1281;23077;-75
2022/03/10 11:03:24;;;;;;;5.50;3.30;;;;;;;-0.03;49.06;100006.44;105709;1281;137554;-75
2022/03/10 11:05:52;;;;;;;5.60;3.20;;;;;;;-0.00;49.13;100006.42;106198;1281;24501;-75
2022/03/10 11:08:23;;;;;;;5.00;2.90;;;;;;;0.01;48.22;100005.46;105913;1281;137694;-75
2022/03/10 11:10:50;;;;;;;8.90;3.20;;;;;;;0.13;48.69;100006.66;105803;1281;22699;-75
2022/03/10 11:13:17;;;;;;;6.00;3.20;;;;;;;0.22;48.45;100009.20;106051;1280;22557;-75
2022/03/10 11:15:44;;;;;;;5.70;3.30;;;;;;;0.23;48.50;100013.10;106379;1280;137485;-74
2022/03/10 11:18:13;;;;;;;7.20;3.80;;;;;;;0.22;48.08;100012.66;105934;1280;22478;-73
2022/03/10 11:20:42;;;;;;;8.20;3.60;;;;;;;0.21;47.89;100013.25;105705;1281;137940;-74
2022/03/10 11:23:24;;;;;;;5.70;3.20;;;;;;;0.21;47.86;100012.69;105907;1280;22987;-73